sensor_id;sensor_type;location;lat;lon;timestamp;temperature;humidity
33717;DHT22;20046;50.746;7.072;2024-03-23T00:54:10;8.70;99.90
33717;DHT22;20046;50.746;7.072;2024-03-23T00:56:35;8.70;99.90
33717;DHT22;20046;50.746;7.072;2024-03-23T00:59:01;8.70;99.90
33717;DHT22;20046;50.746;7.072;2024-03-23T01:01:27;8.70;99.90
33717;DHT22;20046;50.746;7.072;2024-03-23T01:03:52;8.70;99.90
33717;DHT22;20046;50.746;7.072;2024-03-23T01:06:18;8.70;99.90
33717;DHT22;20046;50.746;7.072;2024-03-23T01:08:44;8.70;99.90
33717;DHT22;20046;50.746;7.072;2024-03-23T01:11:09;8.70;99.90
33717;DHT22;20046;50.746;7.072;2024-03-23T01:13:35;8.70;99.90
33717;DHT22;20046;50.746;7.072;2024-03-23T01:16:00;8.60;99.90
33717;DHT22;20046;50.746;7.072;2024-03-23T01:18:27;8.60;99.90
33717;DHT22;20046;50.746;7.072;2024-03-23T01:20:52;8.60;99.90
33717;DHT22;20046;50.746;7.072;2024-03-23T01:23:18;8.60;99.90
33717;DHT22;20046;50.746;7.072;2024-03-23T01:25:43;8.60;99.90
33717;DHT22;20046;50.746;7.072;2024-03-23T01:28:09;8.60;99.90
33717;DHT22;20046;50.746;7.072;2024-03-23T01:30:35;8.50;99.90
33717;DHT22;20046;50.746;7.072;2024-03-23T01:33:02;8.50;99.90
33717;DHT22;20046;50.746;7.072;2024-03-23T01:35:30;8.50;99.90
33717;DHT22;20046;50.746;7.072;2024-03-23T01:37:56;8.40;99.90
33717;DHT22;20046;50.746;7.072;2024-03-23T01:40:21;8.40;99.90
33717;DHT22;20046;50.746;7.072;2024-03-23T01:42:57;8.40;99.90
33717;DHT22;20046;50.746;7.072;2024-03-23T01:45:22;8.30;99.90
33717;DHT22;20046;50.746;7.072;2024-03-23T01:47:52;8.30;99.90
33717;DHT22;20046;50.746;7.072;2024-03-23T01:50:21;8.30;99.90
33717;DHT22;20046;50.746;7.072;2024-03-23T01:52:47;8.30;99.90
33717;DHT22;20046;50.746;7.072;2024-03-23T01:55:13;8.30;99.90
33717;DHT22;20046;50.746;7.072;2024-03-23T01:57:39;8.30;99.90
33717;DHT22;20046;50.746;7.072;2024-03-23T02:00:06;8.30;99.90
33717;DHT22;20046;50.746;7.072;2024-03-23T02:02:32;8.30;99.90
33717;DHT22;20046;50.746;7.072;2024-03-23T02:04:58;8.20;99.90
33717;DHT22;20046;50.746;7.072;2024-03-23T02:07:24;8.20;99.90
33717;DHT22;20046;50.746;7.072;2024-03-23T02:09:51;8.20;99.90
33717;DHT22;20046;50.746;7.072;2024-03-23T02:12:17;8.20;99.90
33717;DHT22;20046;50.746;7.072;2024-03-23T02:14:43;8.10;99.90
33717;DHT22;20046;50.746;7.072;2024-03-23T02:17:09;8.10;99.90
33717;DHT22;20046;50.746;7.072;2024-03-23T02:19:35;8.00;99.90
33717;DHT22;20046;50.746;7.072;2024-03-23T02:22:00;8.00;99.90
33717;DHT22;20046;50.746;7.072;2024-03-23T02:24:26;7.90;99.90
33717;DHT22;20046;50.746;7.072;2024-03-23T02:26:51;7.90;99.90
33717;DHT22;20046;50.746;7.072;2024-03-23T02:29:17;7.90;99.90
33717;DHT22;20046;50.746;7.072;2024-03-23T02:31:43;7.90;99.90
33717;DHT22;20046;50.746;7.072;2024-03-23T02:34:08;7.80;99.90
33717;DHT22;20046;50.746;7.072;2024-03-23T02:36:34;7.80;99.90
33717;DHT22;20046;50.746;7.072;2024-03-23T02:38:59;7.80;99.90
33717;DHT22;20046;50.746;7.072;2024-03-23T02:41:25;7.80;99.90
33717;DHT22;20046;50.746;7.072;2024-03-23T02:43:51;7.70;99.90
33717;DHT22;20046;50.746;7.072;2024-03-23T02:46:16;7.70;99.90
33717;DHT22;20046;50.746;7.072;2024-03-23T02:48:42;7.70;99.90
33717;DHT22;20046;50.746;7.072;2024-03-23T02:51:08;7.60;99.90
33717;DHT22;20046;50.746;7.072;2024-03-23T02:53:34;7.60;99.90
33717;DHT22;20046;50.746;7.072;2024-03-23T02:55:59;7.60;99.90
33717;DHT22;20046;50.746;7.072;2024-03-23T02:58:25;7.50;99.90
33717;DHT22;20046;50.746;7.072;2024-03-23T03:00:51;7.50;99.90
33717;DHT22;20046;50.746;7.072;2024-03-23T03:03:16;7.50;99.90
33717;DHT22;20046;50.746;7.072;2024-03-23T03:05:42;7.40;99.90
33717;DHT22;20046;50.746;7.072;2024-03-23T03:08:07;7.30;99.90
33717;DHT22;20046;50.746;7.072;2024-03-23T03:10:33;7.20;99.90
33717;DHT22;20046;50.746;7.072;2024-03-23T03:13:01;7.00;99.90
33717;DHT22;20046;50.746;7.072;2024-03-23T03:15:27;6.90;99.90
33717;DHT22;20046;50.746;7.072;2024-03-23T03:17:53;6.80;99.90
33717;DHT22;20046;50.746;7.072;2024-03-23T03:20:22;6.70;99.90
33717;DHT22;20046;50.746;7.072;2024-03-23T03:22:49;6.60;99.90
33717;DHT22;20046;50.746;7.072;2024-03-23T03:25:14;6.60;99.90
33717;DHT22;20046;50.746;7.072;2024-03-23T03:27:40;6.50;99.90
33717;DHT22;20046;50.746;7.072;2024-03-23T03:30:06;6.50;99.90
33717;DHT22;20046;50.746;7.072;2024-03-23T03:32:33;6.40;99.90
33717;DHT22;20046;50.746;7.072;2024-03-23T03:34:59;6.40;99.90
33717;DHT22;20046;50.746;7.072;2024-03-23T03:37:25;6.40;99.90
33717;DHT22;20046;50.746;7.072;2024-03-23T03:39:50;6.30;99.90
33717;DHT22;20046;50.746;7.072;2024-03-23T03:42:16;6.30;99.90
33717;DHT22;20046;50.746;7.072;2024-03-23T03:44:42;6.30;99.90
33717;DHT22;20046;50.746;7.072;2024-03-23T03:47:07;6.30;99.90
33717;DHT22;20046;50.746;7.072;2024-03-23T03:49:33;6.30;99.90
33717;DHT22;20046;50.746;7.072;2024-03-23T03:51:58;6.20;99.90
33717;DHT22;20046;50.746;7.072;2024-03-23T03:54:26;6.30;99.90
33717;DHT22;20046;50.746;7.072;2024-03-23T03:56:52;6.20;99.90
33717;DHT22;20046;50.746;7.072;2024-03-23T03:59:17;6.20;99.90
33717;DHT22;20046;50.746;7.072;2024-03-23T04:01:43;6.20;99.90
33717;DHT22;20046;50.746;7.072;2024-03-23T04:04:08;6.20;99.90
33717;DHT22;20046;50.746;7.072;2024-03-23T04:06:34;6.20;99.90
33717;DHT22;20046;50.746;7.072;2024-03-23T04:09:00;6.20;99.90
33717;DHT22;20046;50.746;7.072;2024-03-23T04:11:26;6.10;99.90
33717;DHT22;20046;50.746;7.072;2024-03-23T04:13:51;6.20;99.90
33717;DHT22;20046;50.746;7.072;2024-03-23T04:16:33;6.10;99.90
33717;DHT22;20046;50.746;7.072;2024-03-23T04:18:59;6.20;99.90
33717;DHT22;20046;50.746;7.072;2024-03-23T04:21:25;6.10;99.90
33717;DHT22;20046;50.746;7.072;2024-03-23T04:23:51;6.20;99.90
33717;DHT22;20046;50.746;7.072;2024-03-23T04:26:17;6.10;99.90
33717;DHT22;20046;50.746;7.072;2024-03-23T04:28:42;6.10;99.90
33717;DHT22;20046;50.746;7.072;2024-03-23T04:31:08;6.10;99.90
33717;DHT22;20046;50.746;7.072;2024-03-23T04:33:34;6.10;99.90
33717;DHT22;20046;50.746;7.072;2024-03-23T04:36:00;6.00;99.90
33717;DHT22;20046;50.746;7.072;2024-03-23T04:38:25;6.00;99.90
33717;DHT22;20046;50.746;7.072;2024-03-23T04:40:55;6.00;99.90
33717;DHT22;20046;50.746;7.072;2024-03-23T04:43:21;6.00;99.90
33717;DHT22;20046;50.746;7.072;2024-03-23T04:45:47;6.00;99.90
33717;DHT22;20046;50.746;7.072;2024-03-23T04:48:12;6.00;99.90
33717;DHT22;20046;50.746;7.072;2024-03-23T04:50:38;6.00;99.90
33717;DHT22;20046;50.746;7.072;2024-03-23T04:53:04;6.00;99.90
33717;DHT22;20046;50.746;7.072;2024-03-23T04:55:29;6.00;99.90
33717;DHT22;20046;50.746;7.072;2024-03-23T04:57:56;6.00;99.90
33717;DHT22;20046;50.746;7.072;2024-03-23T05:00:21;6.00;99.90
33717;DHT22;20046;50.746;7.072;2024-03-23T05:02:48;6.00;99.90
33717;DHT22;20046;50.746;7.072;2024-03-23T05:05:14;6.00;99.90
33717;DHT22;20046;50.746;7.072;2024-03-23T05:07:39;6.00;99.90
33717;DHT22;20046;50.746;7.072;2024-03-23T05:10:08;5.90;99.90
33717;DHT22;20046;50.746;7.072;2024-03-23T05:12:37;5.90;99.90
33717;DHT22;20046;50.746;7.072;2024-03-23T05:15:04;5.90;99.90
33717;DHT22;20046;50.746;7.072;2024-03-23T05:17:30;5.90;99.90
33717;DHT22;20046;50.746;7.072;2024-03-23T05:19:56;5.90;99.90
33717;DHT22;20046;50.746;7.072;2024-03-23T05:22:22;5.90;99.90
33717;DHT22;20046;50.746;7.072;2024-03-23T05:24:48;5.90;99.90
33717;DHT22;20046;50.746;7.072;2024-03-23T05:27:14;5.90;99.90
33717;DHT22;20046;50.746;7.072;2024-03-23T05:29:39;5.90;99.90
33717;DHT22;20046;50.746;7.072;2024-03-23T05:32:05;5.90;99.90
33717;DHT22;20046;50.746;7.072;2024-03-23T05:34:31;5.80;99.90
33717;DHT22;20046;50.746;7.072;2024-03-23T05:36:57;5.80;99.90
33717;DHT22;20046;50.746;7.072;2024-03-23T05:39:23;5.80;99.90
33717;DHT22;20046;50.746;7.072;2024-03-23T05:41:49;5.80;99.90
33717;DHT22;20046;50.746;7.072;2024-03-23T05:44:15;5.80;99.90
33717;DHT22;20046;50.746;7.072;2024-03-23T05:46:41;5.80;99.90
33717;DHT22;20046;50.746;7.072;2024-03-23T05:49:07;5.80;99.90
33717;DHT22;20046;50.746;7.072;2024-03-23T05:51:32;5.80;99.90
33717;DHT22;20046;50.746;7.072;2024-03-23T05:53:58;5.80;99.90
33717;DHT22;20046;50.746;7.072;2024-03-23T05:56:24;5.80;99.90
33717;DHT22;20046;50.746;7.072;2024-03-23T05:58:51;5.80;99.90
33717;DHT22;20046;50.746;7.072;2024-03-23T06:01:17;5.80;99.90
33717;DHT22;20046;50.746;7.072;2024-03-23T06:03:43;5.80;99.90
33717;DHT22;20046;50.746;7.072;2024-03-23T06:06:09;5.80;99.90
33717;DHT22;20046;50.746;7.072;2024-03-23T06:08:37;5.80;99.90
33717;DHT22;20046;50.746;7.072;2024-03-23T06:11:04;5.90;99.90
33717;DHT22;20046;50.746;7.072;2024-03-23T06:13:32;5.90;99.90
33717;DHT22;20046;50.746;7.072;2024-03-23T06:15:57;5.90;99.90
33717;DHT22;20046;50.746;7.072;2024-03-23T06:18:24;5.90;99.90
33717;DHT22;20046;50.746;7.072;2024-03-23T06:20:49;6.00;99.90
33717;DHT22;20046;50.746;7.072;2024-03-23T06:23:15;6.00;99.90
33717;DHT22;20046;50.746;7.072;2024-03-23T06:25:42;6.00;99.90
33717;DHT22;20046;50.746;7.072;2024-03-23T06:28:08;6.00;99.90
33717;DHT22;20046;50.746;7.072;2024-03-23T06:30:34;6.10;99.90
33717;DHT22;20046;50.746;7.072;2024-03-23T06:32:59;6.10;99.90
33717;DHT22;20046;50.746;7.072;2024-03-23T06:35:25;6.10;99.90
33717;DHT22;20046;50.746;7.072;2024-03-23T06:37:51;6.10;99.90
33717;DHT22;20046;50.746;7.072;2024-03-23T06:40:16;6.20;99.90
33717;DHT22;20046;50.746;7.072;2024-03-23T06:42:42;6.20;99.90
33717;DHT22;20046;50.746;7.072;2024-03-23T06:45:08;6.30;99.90
33717;DHT22;20046;50.746;7.072;2024-03-23T06:47:33;6.40;99.90
33717;DHT22;20046;50.746;7.072;2024-03-23T06:50:00;6.80;99.90
33717;DHT22;20046;50.746;7.072;2024-03-23T06:52:29;7.10;99.90
33717;DHT22;20046;50.746;7.072;2024-03-23T06:54:55;7.30;99.90
33717;DHT22;20046;50.746;7.072;2024-03-23T06:57:21;7.70;99.90
33717;DHT22;20046;50.746;7.072;2024-03-23T06:59:47;8.30;99.90
33717;DHT22;20046;50.746;7.072;2024-03-23T07:02:13;8.80;99.90
33717;DHT22;20046;50.746;7.072;2024-03-23T07:04:38;9.30;99.90
33717;DHT22;20046;50.746;7.072;2024-03-23T07:07:07;9.60;99.90
33717;DHT22;20046;50.746;7.072;2024-03-23T07:09:33;10.10;99.90
33717;DHT22;20046;50.746;7.072;2024-03-23T07:11:58;10.50;99.90
33717;DHT22;20046;50.746;7.072;2024-03-23T07:14:24;10.80;99.90
33717;DHT22;20046;50.746;7.072;2024-03-23T07:16:50;11.20;99.90
33717;DHT22;20046;50.746;7.072;2024-03-23T07:19:16;11.50;99.90
33717;DHT22;20046;50.746;7.072;2024-03-23T07:21:43;11.80;99.90
33717;DHT22;20046;50.746;7.072;2024-03-23T07:24:09;12.00;99.90
33717;DHT22;20046;50.746;7.072;2024-03-23T07:26:35;12.30;99.90
33717;DHT22;20046;50.746;7.072;2024-03-23T07:29:00;12.70;99.90
33717;DHT22;20046;50.746;7.072;2024-03-23T07:31:26;13.00;99.90
33717;DHT22;20046;50.746;7.072;2024-03-23T07:33:51;13.20;99.90
33717;DHT22;20046;50.746;7.072;2024-03-23T07:36:17;13.20;99.90
33717;DHT22;20046;50.746;7.072;2024-03-23T07:38:43;13.10;99.90
33717;DHT22;20046;50.746;7.072;2024-03-23T07:41:15;13.00;99.90
33717;DHT22;20046;50.746;7.072;2024-03-23T07:43:43;13.00;99.90
33717;DHT22;20046;50.746;7.072;2024-03-23T07:46:09;13.20;99.90
33717;DHT22;20046;50.746;7.072;2024-03-23T07:48:35;13.10;99.90
33717;DHT22;20046;50.746;7.072;2024-03-23T07:51:08;13.20;99.90
33717;DHT22;20046;50.746;7.072;2024-03-23T07:53:35;13.30;99.90
33717;DHT22;20046;50.746;7.072;2024-03-23T07:56:06;13.40;99.90
33717;DHT22;20046;50.746;7.072;2024-03-23T07:58:32;13.60;99.90
33717;DHT22;20046;50.746;7.072;2024-03-23T08:01:05;13.80;99.90
33717;DHT22;20046;50.746;7.072;2024-03-23T08:03:34;14.00;99.90
33717;DHT22;20046;50.746;7.072;2024-03-23T08:06:10;14.40;99.90
33717;DHT22;20046;50.746;7.072;2024-03-23T08:08:35;14.40;99.90
33717;DHT22;20046;50.746;7.072;2024-03-23T08:11:01;14.40;99.90
33717;DHT22;20046;50.746;7.072;2024-03-23T08:13:27;13.90;99.90
33717;DHT22;20046;50.746;7.072;2024-03-23T08:15:56;12.70;99.90
33717;DHT22;20046;50.746;7.072;2024-03-23T08:18:22;11.50;99.90
33717;DHT22;20046;50.746;7.072;2024-03-23T08:20:58;10.40;99.90
33717;DHT22;20046;50.746;7.072;2024-03-23T08:23:25;9.60;99.90
33717;DHT22;20046;50.746;7.072;2024-03-23T08:25:51;9.00;99.90
33717;DHT22;20046;50.746;7.072;2024-03-23T08:28:17;8.70;99.90
33717;DHT22;20046;50.746;7.072;2024-03-23T08:30:43;8.60;99.90
33717;DHT22;20046;50.746;7.072;2024-03-23T08:33:09;8.70;99.90
33717;DHT22;20046;50.746;7.072;2024-03-23T08:35:34;8.90;99.90
33717;DHT22;20046;50.746;7.072;2024-03-23T08:38:00;9.00;99.90
33717;DHT22;20046;50.746;7.072;2024-03-23T08:40:26;10.40;99.90
33717;DHT22;20046;50.746;7.072;2024-03-23T08:42:51;12.10;99.90
33717;DHT22;20046;50.746;7.072;2024-03-23T08:45:17;13.80;99.90
33717;DHT22;20046;50.746;7.072;2024-03-23T08:47:42;15.20;99.90
33717;DHT22;20046;50.746;7.072;2024-03-23T08:50:08;16.50;99.90
33717;DHT22;20046;50.746;7.072;2024-03-23T08:52:34;17.50;99.90
33717;DHT22;20046;50.746;7.072;2024-03-23T08:54:59;18.30;99.90
33717;DHT22;20046;50.746;7.072;2024-03-23T08:57:25;19.00;99.80
33717;DHT22;20046;50.746;7.072;2024-03-23T08:59:51;18.80;97.60
33717;DHT22;20046;50.746;7.072;2024-03-23T09:02:16;17.70;98.60
33717;DHT22;20046;50.746;7.072;2024-03-23T09:04:42;17.00;99.40
33717;DHT22;20046;50.746;7.072;2024-03-23T09:07:07;16.60;99.90
33717;DHT22;20046;50.746;7.072;2024-03-23T09:09:33;16.10;99.60
33717;DHT22;20046;50.746;7.072;2024-03-23T09:11:59;15.40;99.90
33717;DHT22;20046;50.746;7.072;2024-03-23T09:14:24;14.50;99.90
33717;DHT22;20046;50.746;7.072;2024-03-23T09:16:50;13.60;99.90
33717;DHT22;20046;50.746;7.072;2024-03-23T09:19:17;12.90;99.90
33717;DHT22;20046;50.746;7.072;2024-03-23T09:21:43;12.60;99.90
33717;DHT22;20046;50.746;7.072;2024-03-23T09:24:08;12.60;99.90
33717;DHT22;20046;50.746;7.072;2024-03-23T09:26:34;12.50;99.90
33717;DHT22;20046;50.746;7.072;2024-03-23T09:28:59;12.30;99.90
33717;DHT22;20046;50.746;7.072;2024-03-23T09:31:25;12.00;99.90
33717;DHT22;20046;50.746;7.072;2024-03-23T09:33:50;12.50;99.90
33717;DHT22;20046;50.746;7.072;2024-03-23T09:36:16;13.00;99.90
33717;DHT22;20046;50.746;7.072;2024-03-23T09:38:42;12.90;99.90
33717;DHT22;20046;50.746;7.072;2024-03-23T09:41:08;13.20;99.90
33717;DHT22;20046;50.746;7.072;2024-03-23T09:43:35;13.90;99.90
33717;DHT22;20046;50.746;7.072;2024-03-23T09:46:02;14.70;99.90
33717;DHT22;20046;50.746;7.072;2024-03-23T09:48:28;15.40;99.90
33717;DHT22;20046;50.746;7.072;2024-03-23T09:50:53;15.70;99.90
33717;DHT22;20046;50.746;7.072;2024-03-23T09:53:19;15.70;99.90
33717;DHT22;20046;50.746;7.072;2024-03-23T09:55:45;15.70;99.90
33717;DHT22;20046;50.746;7.072;2024-03-23T09:58:15;15.40;99.90
33717;DHT22;20046;50.746;7.072;2024-03-23T10:00:41;15.30;99.90
33717;DHT22;20046;50.746;7.072;2024-03-23T10:03:07;14.90;99.90
33717;DHT22;20046;50.746;7.072;2024-03-23T10:05:34;14.50;99.90
33717;DHT22;20046;50.746;7.072;2024-03-23T10:08:00;14.40;99.90
33717;DHT22;20046;50.746;7.072;2024-03-23T10:10:42;14.20;99.90
33717;DHT22;20046;50.746;7.072;2024-03-23T10:13:07;13.90;99.90
33717;DHT22;20046;50.746;7.072;2024-03-23T10:15:35;14.10;99.90
33717;DHT22;20046;50.746;7.072;2024-03-23T10:18:19;14.60;99.90
33717;DHT22;20046;50.746;7.072;2024-03-23T10:20:52;15.20;99.90
33717;DHT22;20046;50.746;7.072;2024-03-23T10:23:18;15.30;99.90
33717;DHT22;20046;50.746;7.072;2024-03-23T10:25:44;15.20;99.90
33717;DHT22;20046;50.746;7.072;2024-03-23T10:28:09;15.30;99.90
33717;DHT22;20046;50.746;7.072;2024-03-23T10:30:37;15.50;99.90
33717;DHT22;20046;50.746;7.072;2024-03-23T10:33:11;15.10;99.90
33717;DHT22;20046;50.746;7.072;2024-03-23T10:35:38;13.60;99.90
33717;DHT22;20046;50.746;7.072;2024-03-23T10:38:05;12.40;99.90
33717;DHT22;20046;50.746;7.072;2024-03-23T10:40:34;11.30;99.90
33717;DHT22;20046;50.746;7.072;2024-03-23T10:43:00;10.50;99.90
33717;DHT22;20046;50.746;7.072;2024-03-23T10:45:26;9.80;99.90
33717;DHT22;20046;50.746;7.072;2024-03-23T10:47:51;9.20;99.90
33717;DHT22;20046;50.746;7.072;2024-03-23T10:50:17;8.90;99.90
33717;DHT22;20046;50.746;7.072;2024-03-23T10:52:48;8.50;99.90
33717;DHT22;20046;50.746;7.072;2024-03-23T10:55:16;8.30;99.90
33717;DHT22;20046;50.746;7.072;2024-03-23T10:57:50;8.20;99.90
33717;DHT22;20046;50.746;7.072;2024-03-23T11:00:17;8.20;99.90
33717;DHT22;20046;50.746;7.072;2024-03-23T11:02:43;8.30;99.90
33717;DHT22;20046;50.746;7.072;2024-03-23T11:05:29;8.40;99.90
33717;DHT22;20046;50.746;7.072;2024-03-23T11:07:55;8.70;99.90
33717;DHT22;20046;50.746;7.072;2024-03-23T11:10:28;9.30;99.90
33717;DHT22;20046;50.746;7.072;2024-03-23T11:12:58;10.70;99.90
33717;DHT22;20046;50.746;7.072;2024-03-23T11:15:42;12.50;99.90
33717;DHT22;20046;50.746;7.072;2024-03-23T11:18:08;13.90;99.90
33717;DHT22;20046;50.746;7.072;2024-03-23T11:20:37;15.30;99.90
33717;DHT22;20046;50.746;7.072;2024-03-23T11:23:03;16.50;99.90
33717;DHT22;20046;50.746;7.072;2024-03-23T11:25:29;17.00;98.90
33717;DHT22;20046;50.746;7.072;2024-03-23T11:27:56;17.30;98.40
33717;DHT22;20046;50.746;7.072;2024-03-23T11:30:27;17.30;97.70
33717;DHT22;20046;50.746;7.072;2024-03-23T11:32:57;18.00;98.10
33717;DHT22;20046;50.746;7.072;2024-03-23T11:35:33;18.30;95.30
33717;DHT22;20046;50.746;7.072;2024-03-23T11:40:28;15.80;94.20
33717;DHT22;20046;50.746;7.072;2024-03-23T11:43:01;14.60;96.10
33717;DHT22;20046;50.746;7.072;2024-03-23T11:45:27;14.10;97.10
33717;DHT22;20046;50.746;7.072;2024-03-23T11:48:31;15.30;96.90
33717;DHT22;20046;50.746;7.072;2024-03-23T11:50:58;15.70;95.90
33717;DHT22;20046;50.746;7.072;2024-03-23T11:53:24;16.40;96.20
33717;DHT22;20046;50.746;7.072;2024-03-23T11:58:20;17.80;95.30
33717;DHT22;20046;50.746;7.072;2024-03-23T12:01:03;18.20;94.00
33717;DHT22;20046;50.746;7.072;2024-03-23T12:03:29;16.90;94.00
33717;DHT22;20046;50.746;7.072;2024-03-23T12:05:58;15.00;95.40
33717;DHT22;20046;50.746;7.072;2024-03-23T12:08:32;13.80;96.90
33717;DHT22;20046;50.746;7.072;2024-03-23T12:11:21;13.60;98.90
33717;DHT22;20046;50.746;7.072;2024-03-23T12:13:47;15.90;97.60
33717;DHT22;20046;50.746;7.072;2024-03-23T12:16:21;18.20;96.50
33717;DHT22;20046;50.746;7.072;2024-03-23T12:18:50;20.30;93.80
33717;DHT22;20046;50.746;7.072;2024-03-23T12:21:20;21.70;91.20
33717;DHT22;20046;50.746;7.072;2024-03-23T12:23:48;22.10;90.00
33717;DHT22;20046;50.746;7.072;2024-03-23T12:26:15;21.00;87.50
33717;DHT22;20046;50.746;7.072;2024-03-23T12:28:42;19.20;89.60
33717;DHT22;20046;50.746;7.072;2024-03-23T12:31:08;17.50;92.90
33717;DHT22;20046;50.746;7.072;2024-03-23T12:33:34;18.30;94.40
33717;DHT22;20046;50.746;7.072;2024-03-23T12:35:59;19.00;92.70
33717;DHT22;20046;50.746;7.072;2024-03-23T12:38:25;19.50;91.40
33717;DHT22;20046;50.746;7.072;2024-03-23T12:40:50;20.30;90.00
33717;DHT22;20046;50.746;7.072;2024-03-23T12:43:17;21.30;86.70
33717;DHT22;20046;50.746;7.072;2024-03-23T12:45:49;22.20;83.30
33717;DHT22;20046;50.746;7.072;2024-03-23T12:48:18;22.20;83.20
33717;DHT22;20046;50.746;7.072;2024-03-23T12:50:44;22.30;79.70
33717;DHT22;20046;50.746;7.072;2024-03-23T12:53:09;19.70;81.10
33717;DHT22;20046;50.746;7.072;2024-03-23T12:55:35;17.10;84.50
33717;DHT22;20046;50.746;7.072;2024-03-23T12:58:01;15.50;88.80
33717;DHT22;20046;50.746;7.072;2024-03-23T13:00:27;14.60;91.50
33717;DHT22;20046;50.746;7.072;2024-03-23T13:02:52;15.90;91.50
33717;DHT22;20046;50.746;7.072;2024-03-23T13:05:18;17.20;89.60
33717;DHT22;20046;50.746;7.072;2024-03-23T13:07:43;17.40;85.40
33717;DHT22;20046;50.746;7.072;2024-03-23T13:10:09;16.90;87.30
33717;DHT22;20046;50.746;7.072;2024-03-23T13:12:34;17.70;89.30
33717;DHT22;20046;50.746;7.072;2024-03-23T13:15:00;19.20;86.00
33717;DHT22;20046;50.746;7.072;2024-03-23T13:17:27;20.60;83.40
33717;DHT22;20046;50.746;7.072;2024-03-23T13:19:53;21.60;83.30
33717;DHT22;20046;50.746;7.072;2024-03-23T13:22:19;22.90;78.50
33717;DHT22;20046;50.746;7.072;2024-03-23T13:24:44;24.10;76.00
33717;DHT22;20046;50.746;7.072;2024-03-23T13:27:10;25.10;72.40
33717;DHT22;20046;50.746;7.072;2024-03-23T13:29:36;25.70;67.30
33717;DHT22;20046;50.746;7.072;2024-03-23T13:32:03;25.50;64.90
33717;DHT22;20046;50.746;7.072;2024-03-23T13:34:29;25.90;64.30
33717;DHT22;20046;50.746;7.072;2024-03-23T13:36:55;26.20;62.30
33717;DHT22;20046;50.746;7.072;2024-03-23T13:39:23;26.40;60.50
33717;DHT22;20046;50.746;7.072;2024-03-23T13:41:49;26.60;59.40
33717;DHT22;20046;50.746;7.072;2024-03-23T13:44:14;24.60;58.00
33717;DHT22;20046;50.746;7.072;2024-03-23T13:46:42;21.60;61.50
33717;DHT22;20046;50.746;7.072;2024-03-23T13:49:14;19.80;65.50
33717;DHT22;20046;50.746;7.072;2024-03-23T13:51:46;18.20;68.80
33717;DHT22;20046;50.746;7.072;2024-03-23T13:54:12;18.90;71.20
33717;DHT22;20046;50.746;7.072;2024-03-23T13:56:37;19.80;70.10
33717;DHT22;20046;50.746;7.072;2024-03-23T13:59:03;19.70;70.20
33717;DHT22;20046;50.746;7.072;2024-03-23T14:01:29;18.40;71.00
33717;DHT22;20046;50.746;7.072;2024-03-23T14:03:55;16.70;73.90
33717;DHT22;20046;50.746;7.072;2024-03-23T14:06:21;15.40;77.00
33717;DHT22;20046;50.746;7.072;2024-03-23T14:08:46;15.40;78.80
33717;DHT22;20046;50.746;7.072;2024-03-23T14:11:14;15.40;79.40
33717;DHT22;20046;50.746;7.072;2024-03-23T14:13:40;14.80;81.10
33717;DHT22;20046;50.746;7.072;2024-03-23T14:16:06;14.30;83.00
33717;DHT22;20046;50.746;7.072;2024-03-23T14:18:31;13.70;84.70
33717;DHT22;20046;50.746;7.072;2024-03-23T14:21:00;13.00;86.20
33717;DHT22;20046;50.746;7.072;2024-03-23T14:23:27;12.50;89.60
33717;DHT22;20046;50.746;7.072;2024-03-23T14:25:56;12.00;90.50
33717;DHT22;20046;50.746;7.072;2024-03-23T14:28:22;11.80;91.30
33717;DHT22;20046;50.746;7.072;2024-03-23T14:30:49;11.60;91.90
33717;DHT22;20046;50.746;7.072;2024-03-23T14:33:16;11.40;92.20
33717;DHT22;20046;50.746;7.072;2024-03-23T14:35:41;11.20;92.50
33717;DHT22;20046;50.746;7.072;2024-03-23T14:38:07;10.90;92.70
33717;DHT22;20046;50.746;7.072;2024-03-23T14:40:33;10.70;93.50
33717;DHT22;20046;50.746;7.072;2024-03-23T14:42:59;10.40;94.30
33717;DHT22;20046;50.746;7.072;2024-03-23T14:45:25;10.10;95.10
33717;DHT22;20046;50.746;7.072;2024-03-23T14:47:51;9.70;96.10
33717;DHT22;20046;50.746;7.072;2024-03-23T14:50:17;9.30;97.80
33717;DHT22;20046;50.746;7.072;2024-03-23T14:52:46;8.90;99.00
33717;DHT22;20046;50.746;7.072;2024-03-23T14:55:14;8.60;99.90
33717;DHT22;20046;50.746;7.072;2024-03-23T14:57:40;8.60;99.90
33717;DHT22;20046;50.746;7.072;2024-03-23T15:00:10;8.60;99.90
33717;DHT22;20046;50.746;7.072;2024-03-23T15:02:39;8.80;99.90
33717;DHT22;20046;50.746;7.072;2024-03-23T15:05:05;8.90;99.90
33717;DHT22;20046;50.746;7.072;2024-03-23T15:07:37;9.00;99.90
33717;DHT22;20046;50.746;7.072;2024-03-23T15:10:04;9.10;99.90
33717;DHT22;20046;50.746;7.072;2024-03-23T15:12:31;9.10;99.90
33717;DHT22;20046;50.746;7.072;2024-03-23T15:14:59;9.10;99.90
33717;DHT22;20046;50.746;7.072;2024-03-23T15:17:25;9.10;99.90
33717;DHT22;20046;50.746;7.072;2024-03-23T15:19:50;9.10;99.90
33717;DHT22;20046;50.746;7.072;2024-03-23T15:22:16;9.00;99.90
33717;DHT22;20046;50.746;7.072;2024-03-23T15:24:42;8.90;99.90
33717;DHT22;20046;50.746;7.072;2024-03-23T15:27:07;8.90;99.90
33717;DHT22;20046;50.746;7.072;2024-03-23T15:29:34;9.00;99.90
33717;DHT22;20046;50.746;7.072;2024-03-23T15:32:02;9.00;99.90
33717;DHT22;20046;50.746;7.072;2024-03-23T15:34:28;9.10;99.90
33717;DHT22;20046;50.746;7.072;2024-03-23T15:36:54;9.30;99.90
33717;DHT22;20046;50.746;7.072;2024-03-23T15:39:20;9.40;99.90
33717;DHT22;20046;50.746;7.072;2024-03-23T15:41:47;9.50;99.90
33717;DHT22;20046;50.746;7.072;2024-03-23T15:44:13;9.50;99.90
33717;DHT22;20046;50.746;7.072;2024-03-23T15:46:39;9.40;99.90
33717;DHT22;20046;50.746;7.072;2024-03-23T15:49:04;9.20;99.90
33717;DHT22;20046;50.746;7.072;2024-03-23T15:51:30;9.10;99.90
33717;DHT22;20046;50.746;7.072;2024-03-23T15:54:02;8.90;99.90
33717;DHT22;20046;50.746;7.072;2024-03-23T15:56:31;8.70;99.90
33717;DHT22;20046;50.746;7.072;2024-03-23T15:58:57;8.60;99.90
33717;DHT22;20046;50.746;7.072;2024-03-23T16:01:31;8.50;99.90
33717;DHT22;20046;50.746;7.072;2024-03-23T16:03:59;8.40;99.90
33717;DHT22;20046;50.746;7.072;2024-03-23T16:06:24;8.50;99.90
33717;DHT22;20046;50.746;7.072;2024-03-23T16:08:50;8.70;99.90
33717;DHT22;20046;50.746;7.072;2024-03-23T16:11:15;8.80;99.90
33717;DHT22;20046;50.746;7.072;2024-03-23T16:13:41;8.80;99.90
33717;DHT22;20046;50.746;7.072;2024-03-23T16:16:08;8.60;99.90
33717;DHT22;20046;50.746;7.072;2024-03-23T16:18:36;8.50;99.90
33717;DHT22;20046;50.746;7.072;2024-03-23T16:21:05;8.30;99.90
33717;DHT22;20046;50.746;7.072;2024-03-23T16:23:35;8.10;99.90
33717;DHT22;20046;50.746;7.072;2024-03-23T16:26:06;8.00;99.90
33717;DHT22;20046;50.746;7.072;2024-03-23T16:28:36;7.90;99.90
33717;DHT22;20046;50.746;7.072;2024-03-23T16:31:07;7.90;99.90
33717;DHT22;20046;50.746;7.072;2024-03-23T16:33:33;7.80;99.90
33717;DHT22;20046;50.746;7.072;2024-03-23T16:38:35;7.60;99.90